Latest Weather Observations for Port Augusta

IDS60801

Issued at 2:35 pm CST Friday 29 August 2014 (issued every 30 minutes, with the page automatically refreshed every 10 minutes)

About weather observations | Map of weather stations | Latest weather observations for SA | Other Formats
Station Details ID: 018201 Name: PORT AUGUSTA AERO Lat: -32.51 Lon: 137.72 Height: 13.97 m
Data from the previous 72 hours. | See also: Recent months at Port Augusta
Date/Time
CST
Temp
°C
App
Temp
°C
Dew
Point
Rel
Hum
%
Delta-T
°C
Wind Press
QNH
hPa
Press
MSL
hPa
Rain
since 9 am
mm
Dir
 
Spd
km/h
Gust
km/h
Spd
kts
Gust
kts
29/02:30pm 25.5 21.5 2.9 23 11.0 N 13 24 7 13 1024.2 - 0.0
29/02:00pm 25.8 21.1 3.1 23 11.1 NNE 17 28 9 15 1024.5 - 0.0
29/01:30pm 25.9 20.5 2.6 22 11.3 NNE 20 30 11 16 1025.1 - 0.0
29/01:00pm 25.2 20.9 3.2 24 10.8 NNE 15 30 8 16 1025.6 - 0.0
29/12:30pm 25.0 20.3 3.0 24 10.7 N 17 26 9 14 1026.4 - 0.0
29/12:00pm 23.9 19.6 3.2 26 10.0 NNE 15 28 8 15 1027.0 1027.0 0.0
29/11:30am 24.3 20.9 4.1 27 10.0 NE 11 20 6 11 1027.6 - 0.0
29/11:00am 23.1 19.6 3.6 28 9.5 N 11 20 6 11 1028.0 - 0.0
29/10:30am 22.7 19.3 3.8 29 9.2 NNW 11 15 6 8 1028.3 - 0.0
29/10:00am 21.3 17.7 3.0 30 8.7 N 11 15 6 8 1028.5 - 0.0
29/09:30am 19.9 18.2 4.0 35 7.6 SE 2 9 1 5 1028.5 - 0.0
29/09:00am 16.9 14.7 3.6 41 6.1 S 4 7 2 4 1028.5 1028.5 0.0
29/08:30am 15.2 12.8 4.3 48 5.1 ESE 6 7 3 4 1028.5 - 0.0
29/08:00am 12.4 11.4 5.8 64 3.1 CALM 0 7 0 4 1028.4 - 0.0
29/07:30am 7.5 4.8 2.4 70 2.1 SW 6 7 3 4 1028.1 - 0.0
29/07:00am 5.7 2.7 0.9 71 1.9 SSW 6 7 3 4 1027.9 - 0.0
29/06:30am 5.3 1.7 0.9 73 1.7 WSW 9 11 5 6 1027.8 - 0.0
29/06:00am 5.1 2.5 0.7 73 1.7 WSW 4 9 2 5 1027.5 1027.5 0.0
29/05:30am 5.5 2.5 0.5 70 1.9 SSE 6 9 3 5 1027.3 - 0.0
29/05:00am 6.3 3.6 0.6 67 2.2 SE 4 7 2 4 1027.2 - 0.0
29/04:30am 6.3 3.1 0.8 68 2.2 SSE 7 11 4 6 1026.9 - 0.0
29/04:00am 7.6 4.5 1.2 64 2.6 SSE 7 9 4 5 1026.6 - 0.0
29/03:30am 7.4 4.3 1.5 66 2.4 SW 7 9 4 5 1026.6 - 0.0
29/03:00am 6.8 3.3 1.3 68 2.2 WSW 9 13 5 7 1026.6 1026.6 0.0
29/02:30am 6.4 3.2 0.9 68 2.2 WSW 7 9 4 5 1026.8 - 0.0
29/02:00am 6.3 3.1 1.0 69 2.1 SW 7 9 4 5 1027.0 - 0.0
29/01:30am 6.7 3.8 1.2 68 2.2 SSE 6 9 3 5 1027.2 - 0.0
29/01:00am 9.3 6.0 4.3 71 2.2 SE 11 15 6 8 1027.3 - 0.0
29/12:30am 7.6 3.7 1.0 63 2.6 SE 11 13 6 7 1027.4 - 0.0
29/12:00am 8.8 5.7 1.5 60 3.0 SE 7 9 4 5 1027.3 1027.3 0.0
 
Date/Time
CST
Temp
°C
App
Temp
°C
Dew
Point
Rel
Hum
%
Delta-T
°C
Wind Press
QNH
hPa
Press
MSL
hPa
Rain
since 9 am
mm
Dir
 
Spd
km/h
Gust
km/h
Spd
kts
Gust
kts
28/11:30pm 9.0 6.1 1.4 59 3.1 SW 6 7 3 4 1027.3 - 0.0
28/11:00pm 10.0 6.6 2.1 58 3.3 SW 9 11 5 6 1027.2 - 0.0
28/10:30pm 10.1 6.8 2.5 59 3.2 WSW 9 11 5 6 1027.3 - 0.0
28/10:00pm 11.1 9.2 2.9 57 3.6 S 2 6 1 3 1027.3 - 0.0
28/09:30pm 12.7 9.1 3.1 52 4.2 SE 11 13 6 7 1027.2 - 0.0
28/09:00pm 13.8 10.5 4.4 53 4.3 SE 11 13 6 7 1027.0 1027.0 0.0
28/08:30pm 16.4 13.0 6.0 50 5.0 SE 13 15 7 8 1026.9 - 0.0
28/08:00pm 16.7 13.9 6.8 52 4.9 ESE 11 17 6 9 1026.9 - 0.0
28/07:30pm 17.2 13.5 6.4 49 5.3 SE 15 19 8 10 1026.5 - 0.0
28/07:00pm 17.1 13.4 6.3 49 5.3 SE 15 20 8 11 1026.1 - 0.0
28/06:30pm 19.8 15.3 6.2 41 6.8 SE 19 22 10 12 1025.8 - 0.0
28/06:00pm 20.9 16.7 5.7 37 7.5 SE 17 20 9 11 1025.7 1025.7 0.0
28/05:30pm 22.3 17.5 5.7 34 8.3 SE 20 28 11 15 1025.5 - 0.0
28/05:00pm 24.1 20.2 5.5 30 9.4 SE 15 22 8 12 1025.3 - 0.0
28/04:30pm 25.3 21.3 2.7 23 11.0 ESE 13 19 7 10 1025.1 - 0.0
28/04:00pm 26.6 22.6 0.4 18 12.3 NNE 11 19 6 10 1024.9 - 0.0
28/03:30pm 26.1 21.9 1.4 20 11.8 NE 13 20 7 11 1025.0 - 0.0
28/03:00pm 26.4 23.2 3.0 22 11.4 NE 9 20 5 11 1025.2 1025.2 0.0
28/02:30pm 25.8 20.5 3.1 23 11.1 NNE 20 30 11 16 1025.4 - 0.0
28/02:00pm 25.3 20.4 2.1 22 11.1 E 17 22 9 12 1025.6 - 0.0
28/01:30pm 25.7 22.0 4.2 25 10.7 N 13 26 7 14 1026.0 - 0.0
28/01:00pm 25.2 20.9 3.2 24 10.8 N 15 26 8 14 1026.6 - 0.0
28/12:30pm 24.6 19.8 4.4 27 10.1 N 19 26 10 14 1027.1 - 0.0
28/12:00pm 24.2 21.5 5.5 30 9.4 N 9 22 5 12 1027.6 1027.6 0.0
28/11:30am 23.3 19.9 5.7 32 8.9 NNE 13 20 7 11 1028.1 - 0.0
28/11:00am 22.3 18.9 5.7 34 8.3 N 13 22 7 12 1028.4 - 0.0
28/10:30am 21.4 18.3 5.7 36 7.8 NE 11 19 6 10 1028.5 - 0.0
28/10:00am 20.6 18.2 5.4 37 7.5 N 7 13 4 7 1028.6 - 0.0
28/09:30am 20.3 17.8 6.6 41 6.9 NE 9 13 5 7 1028.7 - 0.0
28/09:00am 19.0 16.7 7.4 47 5.8 E 9 13 5 7 1028.7 1028.7 0.0
28/08:30am 17.0 15.3 7.4 53 4.8 NNE 6 7 3 4 1028.5 - 0.0
28/08:00am 13.1 10.8 7.3 68 2.8 SE 9 13 5 7 1028.3 - 0.0
28/07:30am 8.4 6.5 5.0 79 1.5 SE 4 7 2 4 1028.0 - 0.0
28/07:00am 6.8 4.1 3.6 80 1.4 ESE 7 11 4 6 1027.7 - 0.0
28/06:30am 5.6 2.6 1.7 76 1.6 SSE 7 11 4 6 1027.3 - 0.0
28/06:00am 5.4 3.6 1.5 76 1.5 CALM 0 0 0 0 1027.1 1027.1 0.0
28/05:30am 5.8 4.1 2.1 77 1.5 CALM 0 0 0 0 1026.9 - 0.0
28/05:00am 6.6 5.0 2.5 75 1.7 CALM 0 0 0 0 1026.7 - 0.0
28/04:30am 8.6 6.9 3.8 72 2.1 SE 2 7 1 4 1026.6 - 0.0
28/04:00am 11.3 8.0 4.7 64 3.0 SE 11 15 6 8 1026.6 - 0.0
28/03:30am 10.5 6.8 4.2 65 2.8 SE 13 17 7 9 1026.4 - 0.0
28/03:00am 12.8 9.2 5.2 60 3.5 SE 13 15 7 8 1026.5 1026.5 0.0
28/02:30am 12.8 8.8 5.0 59 3.6 SE 15 19 8 10 1026.7 - 0.0
28/02:00am 9.5 6.3 3.3 65 2.7 SE 9 11 5 6 1026.8 - 0.0
28/01:30am 9.4 6.2 3.2 65 2.7 SE 9 13 5 7 1026.8 - 0.0
28/01:00am 9.3 5.8 3.3 66 2.6 SE 11 13 6 7 1026.8 - 0.0
28/12:30am 10.3 6.6 2.4 58 3.4 SE 11 15 6 8 1026.8 - 0.0
28/12:00am 12.1 8.2 3.6 56 3.8 SE 13 15 7 8 1027.0 1027.0 0.0
 
Date/Time
CST
Temp
°C
App
Temp
°C
Dew
Point
Rel
Hum
%
Delta-T
°C
Wind Press
QNH
hPa
Press
MSL
hPa
Rain
since 9 am
mm
Dir
 
Spd
km/h
Gust
km/h
Spd
kts
Gust
kts
27/11:30pm 12.5 8.4 4.5 58 3.6 SE 15 19 8 10 1027.1 - 0.0
27/11:00pm 13.0 8.8 3.7 53 4.2 SE 15 19 8 10 1027.1 - 0.0
27/10:30pm 15.3 10.8 4.1 47 5.2 SE 17 20 9 11 1027.0 - 0.0
27/10:00pm 16.2 11.3 4.3 45 5.6 SE 19 24 10 13 1026.7 - 0.0
27/09:30pm 16.2 11.1 3.9 44 5.7 SE 20 28 11 15 1026.8 - 0.0
27/09:00pm 14.8 10.3 2.4 43 5.5 SE 15 20 8 11 1026.5 1026.5 0.0
27/08:30pm 13.9 9.9 4.8 54 4.2 SE 15 19 8 10 1026.3 - 0.0
27/08:00pm 12.7 9.3 3.9 55 4.0 E 11 13 6 7 1026.1 - 0.0
27/07:30pm 14.0 10.2 4.0 51 4.6 ESE 13 15 7 8 1025.8 - 0.0
27/07:00pm 14.8 10.8 0.3 37 6.2 ESE 11 13 6 7 1025.4 - 0.0
27/06:30pm 18.5 13.2 1.9 33 7.5 SE 19 22 10 12 1025.0 - 0.0
27/06:00pm 18.8 13.1 -0.6 27 8.3 SE 19 22 10 12 1024.8 1024.8 0.0
27/05:30pm 20.1 14.1 -1.7 23 9.3 SE 20 26 11 14 1024.5 - 0.0
27/05:00pm 20.8 14.3 0.6 26 9.1 SE 24 30 13 16 1024.4 - 0.0
27/04:30pm 22.0 16.0 1.1 25 9.6 SE 22 28 12 15 1024.2 - 0.0
27/04:00pm 22.1 16.8 2.8 28 9.2 SE 20 26 11 14 1024.2 - 0.0
27/03:30pm 22.6 17.1 2.1 26 9.6 SE 20 26 11 14 1024.3 - 0.0
27/03:00pm 23.4 19.2 1.7 24 10.1 SE 13 20 7 11 1024.3 1024.3 0.0
27/02:30pm 22.5 18.2 0.9 24 9.9 SE 13 20 7 11 1024.4 - 0.0
27/02:00pm 22.9 18.3 1.3 24 10.0 SE 15 24 8 13 1024.5 - 0.0
27/01:30pm 22.4 17.7 0.9 24 9.9 E 15 22 8 12 1024.6 - 0.0
27/01:00pm 22.8 19.8 2.3 26 9.7 SE 7 17 4 9 1024.9 - 0.0
27/12:30pm 22.4 18.7 2.5 27 9.4 SW 11 19 6 10 1025.6 - 0.0
27/12:00pm 21.4 18.1 2.6 29 8.8 N 9 15 5 8 1026.1 1026.1 0.0
27/11:30am 20.1 17.2 2.5 31 8.2 NNW 7 11 4 6 1026.6 - 0.0
27/11:00am 20.4 17.6 3.2 32 8.1 NW 7 11 4 6 1026.9 - 0.0
27/10:30am 19.3 15.6 2.6 33 7.7 W 11 17 6 9 1027.1 - 0.0
27/10:00am 18.9 16.0 2.7 34 7.5 WNW 7 11 4 6 1027.0 - 0.0
27/09:30am 17.6 15.4 3.1 38 6.7 NE 4 7 2 4 1027.0 - 0.0
27/09:00am 16.3 14.5 3.4 42 5.9 NE 2 6 1 3 1026.9 1026.9 0.0
27/08:30am 12.6 11.2 3.3 53 4.1 CALM 0 2 0 1 1026.7 - 0.0
27/08:00am 9.9 7.6 3.0 62 3.0 W 4 7 2 4 1026.4 - 0.0
27/07:30am 5.5 2.4 1.6 76 1.6 WNW 7 11 4 6 1025.9 - 0.0
27/07:00am 2.3 0.1 -1.5 76 1.3 CALM 0 0 0 0 1025.5 - 0.0
27/06:30am 2.5 0.4 -0.9 78 1.2 CALM 0 0 0 0 1025.1 - 0.0
27/06:00am 2.3 -0.6 -1.3 77 1.3 ENE 4 6 2 3 1024.8 1024.8 0.0
27/05:30am 3.2 0.4 -0.1 79 1.2 ENE 4 7 2 4 1024.8 - 0.0
27/05:00am 4.1 1.1 1.0 80 1.2 ENE 6 9 3 5 1024.5 - 0.0
27/04:30am 3.5 0.1 -0.3 76 1.4 SW 7 9 4 5 1024.4 - 0.0
27/04:00am 2.8 0.7 -0.8 77 1.3 CALM 0 0 0 0 1024.2 - 0.0
27/03:30am 3.9 1.9 -0.1 75 1.5 CALM 0 0 0 0 1024.1 - 0.0
27/03:00am 3.4 0.2 -0.8 74 1.5 N 6 7 3 4 1023.9 1023.9 0.0
27/02:30am 4.7 1.4 0.3 73 1.7 NNE 7 9 4 5 1024.1 - 0.0
27/02:00am 6.4 3.0 1.9 73 1.8 NE 9 13 5 7 1023.9 - 0.0
27/01:30am 5.0 1.8 -0.2 69 2.0 NE 6 9 3 5 1024.1 - 0.0
27/01:00am 9.4 5.7 2.3 61 3.0 SE 11 15 6 8 1024.1 - 0.0
27/12:30am 6.0 3.2 -0.3 64 2.4 S 4 7 2 4 1024.2 - 0.0
27/12:00am 7.4 3.8 0.6 62 2.7 SSE 9 11 5 6 1024.4 1024.4 0.0
 
Date/Time
CST
Temp
°C
App
Temp
°C
Dew
Point
Rel
Hum
%
Delta-T
°C
Wind Press
QNH
hPa
Press
MSL
hPa
Rain
since 9 am
mm
Dir
 
Spd
km/h
Gust
km/h
Spd
kts
Gust
kts
26/11:30pm 7.3 3.2 0.1 60 2.8 SSE 11 15 6 8 1024.3 - 0.0
26/11:00pm 6.2 2.7 -1.2 59 2.8 S 7 9 4 5 1024.2 - 0.0
26/10:30pm 7.3 4.1 0.5 62 2.7 S 7 9 4 5 1024.2 - 0.0
26/10:00pm 8.7 6.1 3.3 69 2.3 SE 6 9 3 5 1024.2 - 0.0
26/09:30pm 9.6 7.1 4.6 71 2.2 E 7 9 4 5 1024.2 - 0.0
26/09:00pm 11.4 7.5 5.3 66 2.8 ESE 15 17 8 9 1024.0 1024.0 0.0
26/08:30pm 12.0 6.8 0.1 44 4.9 ESE 17 19 9 10 1023.9 - 0.0
26/08:00pm 12.7 8.5 3.6 54 4.1 ESE 15 19 8 10 1023.8 - 0.0
26/07:30pm 13.4 8.5 2.0 46 5.0 ESE 17 22 9 12 1023.5 - 0.0
26/07:00pm 14.2 9.5 3.4 48 4.9 SE 17 20 9 11 1023.3 - 0.0
26/06:30pm 16.1 10.9 -2.9 27 7.6 SE 15 20 8 11 1023.1 - 0.0
26/06:00pm 17.1 12.0 -2.0 27 7.8 SE 15 19 8 10 1023.1 1023.1 0.0
26/05:30pm 18.6 12.9 0.7 30 7.9 SE 20 24 11 13 1022.9 - 0.0
26/05:00pm 20.1 14.6 2.0 30 8.3 SE 20 26 11 14 1022.8 - 0.0
26/04:30pm 20.6 15.5 4.2 34 7.9 SE 20 26 11 14 1022.5 - 0.0
26/04:00pm 21.5 16.3 3.7 31 8.6 SE 20 26 11 14 1022.4 - 0.0
26/03:30pm 22.4 17.7 3.0 28 9.3 SE 17 24 9 13 1022.3 - 0.0
26/03:00pm 22.6 18.7 3.2 28 9.3 ESE 13 19 7 10 1022.7 1022.7 0.0

Other Formats:

Comma delimited format used in spreadsheet applications
http://www.bom.gov.au/fwo/IDS60801/IDS60801.95666.axf

JavaScript Object Notation format (JSON) in row-major order
http://www.bom.gov.au/fwo/IDS60801/IDS60801.95666.json